Time;durP1;ratioP1;P1;durP2;ratioP2;P2;SDS_P1;SDS_P2;PMS_P1;PMS_P2;Temp;Humidity;BMP_temperature;BMP_pressure;BME280_temperature;BME280_humidity;BME280_pressure;Samples;Min_cycle;Max_cycle;Signal;HPM_P1;HPM_P2
2021/06/16 00:02:22;;;;;;;2.25;0.95;;;23.80;42.90;;;;;;5042486;28;20043;-80
2021/06/16 00:04:47;;;;;;;1.40;0.80;;;23.80;43.00;;;;;;5094147;28;20020;-80
2021/06/16 00:07:13;;;;;;;1.70;0.85;;;23.80;43.10;;;;;;5075911;28;20465;-80
2021/06/16 00:09:40;;;;;;;1.45;0.90;;;23.70;43.10;;;;;;5070960;28;20029;-80
2021/06/16 00:12:07;;;;;;;1.73;0.82;;;23.70;43.10;;;;;;5049505;28;20024;-79
2021/06/16 00:14:33;;;;;;;1.48;0.80;;;23.70;43.10;;;;;;5059325;28;20115;-79
2021/06/16 00:16:59;;;;;;;1.80;1.10;;;23.70;43.30;;;;;;5059943;28;20028;-80
2021/06/16 00:19:25;;;;;;;1.30;0.90;;;23.60;43.20;;;;;;5053399;28;20062;-80
2021/06/16 00:21:51;;;;;;;2.22;1.00;;;23.60;43.30;;;;;;5059788;28;20036;-79
2021/06/16 00:24:19;;;;;;;1.98;0.90;;;23.50;43.20;;;;;;5064689;28;20024;-81
2021/06/16 00:26:47;;;;;;;1.95;0.95;;;23.50;43.30;;;;;;5045937;28;20430;-80
2021/06/16 00:29:13;;;;;;;2.05;1.00;;;23.50;43.40;;;;;;5068992;28;20154;-80
2021/06/16 00:31:38;;;;;;;2.67;1.00;;;23.50;43.40;;;;;;5058862;28;20048;-80
2021/06/16 00:34:04;;;;;;;1.23;0.70;;;23.50;43.40;;;;;;5059155;28;20032;-80
2021/06/16 00:36:30;;;;;;;2.30;1.25;;;23.40;43.50;;;;;;5075010;28;20066;-80
2021/06/16 00:38:57;;;;;;;1.27;0.80;;;23.40;43.50;;;;;;5093658;28;20047;-80
2021/06/16 00:41:23;;;;;;;1.73;1.00;;;23.40;43.60;;;;;;5058836;28;20032;-80
2021/06/16 00:43:49;;;;;;;1.55;0.93;;;23.40;43.60;;;;;;5075062;28;20031;-80
2021/06/16 00:46:15;;;;;;;1.35;0.73;;;23.30;43.60;;;;;;5073416;28;20040;-79
2021/06/16 00:48:40;;;;;;;1.40;1.00;;;23.30;43.70;;;;;;5061579;28;20036;-80
2021/06/16 00:51:06;;;;;;;1.45;0.88;;;23.30;43.70;;;;;;5055224;28;20105;-80
2021/06/16 00:53:32;;;;;;;1.38;0.90;;;23.20;43.70;;;;;;5070377;28;20121;-80
2021/06/16 00:55:58;;;;;;;2.17;0.90;;;23.20;43.80;;;;;;5059335;28;20020;-81
2021/06/16 00:58:24;;;;;;;2.72;1.00;;;23.20;43.80;;;;;;5082833;28;20066;-80
2021/06/16 01:01:02;;;;;;;1.55;0.85;;;23.20;43.90;;;;;;5057690;28;20526;-80
2021/06/16 01:03:34;;;;;;;1.17;0.77;;;23.10;43.90;;;;;;5074837;28;20024;-80
2021/06/16 01:06:26;;;;;;;1.70;1.10;;;23.10;43.90;;;;;;5075398;28;20039;-80
2021/06/16 01:09:16;;;;;;;2.33;0.90;;;23.10;44.00;;;;;;5089642;28;20103;-80
2021/06/16 01:12:01;;;;;;;2.10;1.00;;;23.10;44.10;;;;;;5062146;28;20031;-80
2021/06/16 01:14:50;;;;;;;1.33;0.90;;;23.00;44.00;;;;;;5092307;28;20024;-80
2021/06/16 01:17:24;;;;;;;2.50;0.98;;;23.00;44.10;;;;;;5074120;28;20032;-80
2021/06/16 01:19:50;;;;;;;1.50;0.95;;;23.00;44.10;;;;;;5070664;28;20475;-81
2021/06/16 01:22:31;;;;;;;0.80;0.73;;;22.90;44.10;;;;;;5092749;28;20039;-80
2021/06/16 01:25:05;;;;;;;1.17;0.88;;;22.90;44.20;;;;;;5070784;28;20025;-80
2021/06/16 01:27:31;;;;;;;1.07;0.90;;;22.90;44.20;;;;;;5065432;28;20476;-81
2021/06/16 01:29:59;;;;;;;1.27;0.90;;;22.90;44.20;;;;;;5057037;28;20297;-80
2021/06/16 01:32:25;;;;;;;1.98;1.10;;;22.80;44.30;;;;;;5057224;28;20044;-80
2021/06/16 01:34:51;;;;;;;2.30;0.90;;;22.80;44.30;;;;;;5074984;28;20020;-79
2021/06/16 01:37:18;;;;;;;2.10;0.80;;;22.80;44.40;;;;;;5054624;28;20063;-80
2021/06/16 01:39:44;;;;;;;1.77;0.90;;;22.80;44.50;;;;;;5068713;28;20155;-79
2021/06/16 01:42:14;;;;;;;0.90;0.80;;;22.70;44.40;;;;;;5057822;28;20020;-80
2021/06/16 01:44:41;;;;;;;0.80;0.60;;;22.70;44.50;;;;;;5065507;28;20024;-80
2021/06/16 01:47:07;;;;;;;2.05;0.90;;;22.70;44.50;;;;;;5053461;28;20472;-80
2021/06/16 01:49:34;;;;;;;2.20;1.15;;;22.70;44.60;;;;;;5064800;28;20069;-81
2021/06/16 01:52:03;;;;;;;1.55;1.00;;;22.60;44.50;;;;;;5039885;28;20055;-80
2021/06/16 01:54:30;;;;;;;1.00;0.88;;;22.60;44.60;;;;;;5081387;28;20024;-80
2021/06/16 01:56:57;;;;;;;2.92;0.80;;;22.60;44.60;;;;;;5071699;28;20036;-80
2021/06/16 01:59:24;;;;;;;2.20;1.10;;;22.60;44.70;;;;;;5041215;28;20101;-81
2021/06/16 02:01:51;;;;;;;1.65;1.00;;;22.60;44.80;;;;;;5054183;28;20020;-80
2021/06/16 02:04:17;;;;;;;2.05;1.02;;;22.50;44.70;;;;;;5054047;28;20529;-80
2021/06/16 02:06:46;;;;;;;2.97;1.20;;;22.50;44.80;;;;;;5053292;28;20035;-80
2021/06/16 02:09:14;;;;;;;2.08;1.20;;;22.50;44.90;;;;;;5071638;28;20051;-80
2021/06/16 02:11:41;;;;;;;1.10;0.90;;;22.40;44.90;;;;;;5057516;28;20020;-80
2021/06/16 02:14:11;;;;;;;2.65;1.20;;;22.40;45.00;;;;;;5050347;28;20252;-80
2021/06/16 02:16:39;;;;;;;1.30;0.98;;;22.40;45.10;;;;;;5080763;28;20028;-80
2021/06/16 02:19:26;;;;;;;1.08;0.90;;;22.40;45.10;;;;;;5057311;28;20027;-80
2021/06/16 02:21:56;;;;;;;1.67;1.10;;;22.40;45.20;;;;;;5073081;28;20031;-79
2021/06/16 02:24:23;;;;;;;2.33;1.08;;;22.30;45.10;;;;;;5073500;28;20051;-80
2021/06/16 02:26:49;;;;;;;1.00;0.90;;;22.30;45.20;;;;;;5073898;28;20028;-80
2021/06/16 02:29:15;;;;;;;2.63;1.20;;;22.30;45.20;;;;;;5073517;28;20043;-81
2021/06/16 02:31:42;;;;;;;2.45;1.20;;;22.30;45.30;;;;;;5056826;28;20060;-80
2021/06/16 02:34:09;;;;;;;1.75;1.15;;;22.20;45.30;;;;;;5093970;28;20032;-80
2021/06/16 02:36:47;;;;;;;2.53;1.20;;;22.20;45.30;;;;;;5078055;28;20028;-80
2021/06/16 02:39:24;;;;;;;1.17;0.93;;;22.20;45.50;;;;;;5061888;28;20072;-79
2021/06/16 02:41:50;;;;;;;1.50;0.90;;;22.20;45.50;;;;;;5077682;28;20039;-79
2021/06/16 02:44:17;;;;;;;1.80;1.00;;;22.20;45.40;;;;;;5095614;28;20024;-80
2021/06/16 02:46:47;;;;;;;2.30;1.10;;;22.20;45.50;;;;;;5061229;28;20032;-81
2021/06/16 02:49:14;;;;;;;2.08;1.00;;;22.10;45.50;;;;;;5077233;28;20046;-80
2021/06/16 02:51:41;;;;;;;2.22;1.20;;;22.10;45.50;;;;;;5095518;28;20052;-80
2021/06/16 02:54:16;;;;;;;2.42;1.42;;;22.10;45.60;;;;;;5063532;28;20028;-80
2021/06/16 02:56:45;;;;;;;2.08;1.08;;;22.10;45.70;;;;;;5060649;28;20040;-80
2021/06/16 02:59:12;;;;;;;2.67;1.25;;;22.00;45.60;;;;;;5064999;28;20048;-80
2021/06/16 03:01:38;;;;;;;2.17;1.10;;;22.00;45.70;;;;;;5060735;28;20052;-80
2021/06/16 03:04:05;;;;;;;2.78;1.17;;;22.00;45.70;;;;;;5078178;28;20028;-80
2021/06/16 03:06:32;;;;;;;1.63;1.08;;;22.00;45.70;;;;;;5095646;28;20067;-79
2021/06/16 03:08:59;;;;;;;2.03;1.05;;;21.90;45.70;;;;;;5083718;28;20030;-80
2021/06/16 03:11:28;;;;;;;3.17;1.23;;;21.90;45.80;;;;;;5068918;28;20070;-80
2021/06/16 03:13:54;;;;;;;1.55;1.17;;;21.90;45.80;;;;;;5060501;28;20365;-80
2021/06/16 03:16:21;;;;;;;1.83;1.08;;;21.90;45.90;;;;;;5059288;28;20032;-80
2021/06/16 03:18:48;;;;;;;2.67;1.30;;;21.90;45.90;;;;;;5072746;28;20055;-79
2021/06/16 03:21:16;;;;;;;1.73;1.05;;;21.80;45.90;;;;;;5060094;28;20029;-79
2021/06/16 03:23:44;;;;;;;2.90;1.30;;;21.80;45.90;;;;;;5094405;28;20020;-79
2021/06/16 03:26:12;;;;;;;1.58;1.10;;;21.80;45.90;;;;;;5075733;28;20064;-80
2021/06/16 03:28:40;;;;;;;2.70;1.20;;;21.80;46.00;;;;;;5076398;28;20020;-80
2021/06/16 03:31:06;;;;;;;1.63;1.08;;;21.70;45.90;;;;;;5060678;28;20528;-80
2021/06/16 03:33:32;;;;;;;3.28;1.10;;;21.70;46.00;;;;;;5057618;28;20032;-80
2021/06/16 03:35:59;;;;;;;1.70;1.17;;;21.70;46.00;;;;;;5050064;28;20024;-80
2021/06/16 03:38:26;;;;;;;1.35;1.20;;;21.70;46.10;;;;;;5077173;28;20483;-80
2021/06/16 03:40:53;;;;;;;1.60;1.10;;;21.70;46.20;;;;;;5042733;28;20040;-79
2021/06/16 03:43:21;;;;;;;1.88;1.20;;;21.60;46.10;;;;;;5090344;28;20028;-80
2021/06/16 03:45:48;;;;;;;2.35;0.90;;;21.60;46.20;;;;;;5058375;28;20122;-80
2021/06/16 03:48:18;;;;;;;1.77;1.30;;;21.60;46.20;;;;;;5075198;28;20028;-80
2021/06/16 03:50:45;;;;;;;1.30;1.20;;;21.60;46.30;;;;;;5057719;28;20044;-80
2021/06/16 03:53:12;;;;;;;1.55;1.15;;;21.60;46.90;;;;;;5067234;28;20554;-80
2021/06/16 03:55:43;;;;;;;3.10;1.48;;;21.50;46.30;;;;;;5076317;28;20058;-79
2021/06/16 03:58:11;;;;;;;1.40;0.95;;;21.50;46.30;;;;;;5060159;28;20031;-80
2021/06/16 04:00:39;;;;;;;2.03;1.15;;;21.50;47.00;;;;;;5075658;28;20028;-79
2021/06/16 04:03:06;;;;;;;1.27;1.17;;;21.50;46.40;;;;;;5066170;28;20039;-79
2021/06/16 04:05:32;;;;;;;1.95;1.20;;;21.50;46.40;;;;;;5076204;28;20038;-80
2021/06/16 04:07:59;;;;;;;1.98;1.20;;;21.40;46.50;;;;;;5076565;28;20111;-80
2021/06/16 04:10:26;;;;;;;2.95;1.30;;;21.50;46.60;;;;;;5067883;28;20028;-79
2021/06/16 04:12:52;;;;;;;2.30;1.23;;;21.40;46.50;;;;;;5075139;28;20078;-79
2021/06/16 04:15:19;;;;;;;1.88;1.20;;;21.40;46.60;;;;;;5028886;28;20389;-80
2021/06/16 04:17:45;;;;;;;1.17;0.93;;;21.40;46.60;;;;;;5040270;28;20532;-79
2021/06/16 04:20:13;;;;;;;1.80;1.20;;;21.40;46.70;;;;;;5093748;28;20035;-80
2021/06/16 04:22:40;;;;;;;2.03;1.40;;;21.40;46.70;;;;;;5059021;28;20024;-79
2021/06/16 04:25:08;;;;;;;2.53;1.30;;;21.40;46.70;;;;;;5050815;28;20085;-80
2021/06/16 04:27:34;;;;;;;1.67;1.20;;;21.30;46.70;;;;;;5075734;28;20043;-80
2021/06/16 04:30:00;;;;;;;2.05;1.40;;;21.30;46.70;;;;;;5066096;28;20059;-80
2021/06/16 04:32:26;;;;;;;1.20;1.10;;;21.30;46.70;;;;;;5022399;28;20485;-81
2021/06/16 04:34:52;;;;;;;2.60;1.40;;;21.30;46.80;;;;;;5039151;28;20444;-79
2021/06/16 04:37:18;;;;;;;1.65;1.25;;;21.30;46.80;;;;;;5040100;28;20049;-80
2021/06/16 04:39:44;;;;;;;1.92;1.13;;;21.30;46.80;;;;;;5022802;28;20032;-80
2021/06/16 04:42:11;;;;;;;0.98;0.98;;;21.30;46.90;;;;;;5042158;28;20459;-81
2021/06/16 04:44:36;;;;;;;1.98;1.20;;;21.30;46.90;;;;;;5048527;28;20032;-81
2021/06/16 04:47:03;;;;;;;2.67;1.10;;;21.20;46.90;;;;;;5039381;28;20484;-80
2021/06/16 04:49:31;;;;;;;2.75;1.40;;;21.20;47.00;;;;;;5068189;28;20063;-81
2021/06/16 04:51:56;;;;;;;1.30;1.20;;;21.20;47.00;;;;;;5052833;28;20489;-81
2021/06/16 04:54:22;;;;;;;2.63;1.50;;;21.20;47.10;;;;;;5066038;28;20033;-77
2021/06/16 04:56:48;;;;;;;2.58;1.60;;;21.20;47.10;;;;;;5093476;28;20492;-77
2021/06/16 04:59:14;;;;;;;2.33;1.40;;;21.20;47.10;;;;;;5058261;28;20400;-76
2021/06/16 05:01:39;;;;;;;2.47;1.50;;;21.20;47.10;;;;;;5056976;28;20036;-75
2021/06/16 05:04:05;;;;;;;2.15;1.58;;;21.20;47.20;;;;;;5072698;28;20103;-77
2021/06/16 05:06:32;;;;;;;2.67;1.27;;;21.20;47.20;;;;;;5093200;28;20032;-77
2021/06/16 05:08:58;;;;;;;1.60;1.23;;;21.20;47.30;;;;;;5092311;28;20043;-78
2021/06/16 05:11:24;;;;;;;2.63;1.13;;;21.20;47.30;;;;;;5038412;28;20081;-77
2021/06/16 05:13:50;;;;;;;2.03;1.30;;;21.20;47.30;;;;;;5074832;28;20114;-77
2021/06/16 05:16:15;;;;;;;1.95;1.27;;;21.20;47.40;;;;;;5074324;28;20024;-76
2021/06/16 05:18:43;;;;;;;2.03;1.40;;;21.20;47.40;;;;;;5092222;28;20028;-77
2021/06/16 05:21:10;;;;;;;2.15;1.27;;;21.20;47.40;;;;;;5054106;28;20024;-77
2021/06/16 05:23:36;;;;;;;1.83;1.30;;;21.20;47.40;;;;;;5087302;28;20392;-81
2021/06/16 05:26:02;;;;;;;1.90;1.40;;;21.20;47.40;;;;;;5074742;28;20027;-76
2021/06/16 05:28:28;;;;;;;2.33;1.35;;;21.20;47.50;;;;;;5074974;28;20024;-76
2021/06/16 05:30:54;;;;;;;2.97;1.40;;;21.20;47.50;;;;;;5074061;28;20036;-76
2021/06/16 05:33:20;;;;;;;2.85;1.40;;;21.20;47.50;;;;;;5093199;28;20372;-77
2021/06/16 05:35:45;;;;;;;2.17;1.30;;;21.20;47.50;;;;;;5056663;28;20028;-78
2021/06/16 05:38:11;;;;;;;2.35;1.30;;;21.20;47.50;;;;;;5092885;28;20023;-77
2021/06/16 05:40:37;;;;;;;3.78;1.60;;;21.20;47.50;;;;;;5074790;28;20060;-77
2021/06/16 05:43:03;;;;;;;2.15;1.58;;;21.20;47.60;;;;;;5057577;28;20028;-78
2021/06/16 05:45:29;;;;;;;1.98;1.35;;;21.20;47.60;;;;;;5074959;28;20461;-77
2021/06/16 05:47:55;;;;;;;1.70;1.27;;;21.20;47.70;;;;;;5092282;28;20058;-76
2021/06/16 05:50:21;;;;;;;2.40;1.30;;;21.20;47.70;;;;;;5057766;28;20093;-77
2021/06/16 05:52:47;;;;;;;3.75;1.60;;;21.20;47.70;;;;;;5047744;28;20389;-77
2021/06/16 05:55:14;;;;;;;2.33;1.38;;;21.20;47.70;;;;;;5088848;28;20088;-76
2021/06/16 05:57:40;;;;;;;1.85;1.35;;;21.20;47.70;;;;;;5057655;28;20035;-78
2021/06/16 06:00:08;;;;;;;2.10;1.38;;;21.20;47.70;;;;;;5068489;28;20024;-78
2021/06/16 06:02:35;;;;;;;2.70;1.40;;;21.20;47.70;;;;;;5048036;28;20350;-77
2021/06/16 06:05:02;;;;;;;2.47;1.50;;;21.20;47.70;;;;;;5088058;28;20035;-78
2021/06/16 06:07:28;;;;;;;1.50;1.35;;;21.20;47.70;;;;;;5092179;28;20107;-78
2021/06/16 06:09:54;;;;;;;2.10;1.30;;;21.30;47.80;;;;;;5088397;28;20095;-77
2021/06/16 06:12:19;;;;;;;3.45;1.40;;;21.30;47.80;;;;;;5091803;28;20552;-77
2021/06/16 06:14:45;;;;;;;3.13;1.48;;;21.30;47.80;;;;;;5057434;28;20036;-77
2021/06/16 06:17:12;;;;;;;2.15;1.30;;;21.30;47.80;;;;;;5072315;28;20034;-78
2021/06/16 06:19:37;;;;;;;2.35;1.50;;;21.30;47.90;;;;;;5092140;28;20031;-80
2021/06/16 06:22:03;;;;;;;1.98;1.30;;;21.30;47.90;;;;;;5073997;28;20039;-77
2021/06/16 06:24:29;;;;;;;2.40;1.52;;;21.30;47.90;;;;;;5073719;28;20107;-78
2021/06/16 06:26:55;;;;;;;1.60;1.45;;;21.30;47.90;;;;;;5056846;28;20460;-82
2021/06/16 06:29:22;;;;;;;2.40;1.60;;;21.30;47.90;;;;;;5057651;28;20040;-80
2021/06/16 06:31:48;;;;;;;2.38;1.42;;;21.30;48.00;;;;;;5084756;28;20119;-80
2021/06/16 06:34:13;;;;;;;2.17;1.40;;;21.40;48.10;;;;;;5092568;28;20213;-80
2021/06/16 06:36:39;;;;;;;2.08;1.60;;;21.30;48.10;;;;;;5074352;28;20752;-80
2021/06/16 06:39:05;;;;;;;2.13;1.63;;;21.40;48.20;;;;;;5071262;28;20028;-79
2021/06/16 06:41:31;;;;;;;1.95;1.38;;;21.40;48.20;;;;;;5074313;28;20032;-79
2021/06/16 06:43:57;;;;;;;2.58;1.48;;;21.40;48.30;;;;;;5057158;28;20119;-78
2021/06/16 06:46:23;;;;;;;1.95;1.58;;;21.40;48.30;;;;;;5057927;28;20032;-79
2021/06/16 06:48:48;;;;;;;2.35;1.58;;;21.40;48.30;;;;;;5091980;28;20032;-79
2021/06/16 06:51:14;;;;;;;2.22;1.67;;;21.40;48.30;;;;;;5038975;28;20063;-79
2021/06/16 06:53:40;;;;;;;2.78;1.60;;;21.40;48.30;;;;;;5044960;28;20039;-79
2021/06/16 06:56:06;;;;;;;2.22;1.60;;;21.40;48.30;;;;;;5057148;28;20032;-79
2021/06/16 06:58:31;;;;;;;2.40;1.52;;;21.40;48.30;;;;;;5040966;28;20039;-80
2021/06/16 07:00:57;;;;;;;2.25;1.63;;;21.50;48.40;;;;;;5091741;28;20109;-80
2021/06/16 07:03:23;;;;;;;1.85;1.48;;;21.50;48.40;;;;;;5074119;28;20028;-80
2021/06/16 07:05:49;;;;;;;2.15;1.60;;;21.50;48.40;;;;;;5073579;28;20032;-81
2021/06/16 07:08:15;;;;;;;3.15;1.40;;;21.50;48.40;;;;;;5037440;28;20490;-79
2021/06/16 07:10:40;;;;;;;1.85;1.50;;;21.50;48.50;;;;;;5037511;28;20036;-79
2021/06/16 07:13:06;;;;;;;2.80;1.60;;;21.50;48.40;;;;;;5036874;28;20464;-80
2021/06/16 07:15:33;;;;;;;2.60;1.77;;;21.50;48.40;;;;;;5057034;28;20054;-79
2021/06/16 07:17:59;;;;;;;3.47;1.75;;;21.60;48.50;;;;;;5091544;28;20028;-80
2021/06/16 07:20:25;;;;;;;2.55;1.65;;;21.60;48.50;;;;;;5089638;28;20036;-79
2021/06/16 07:22:53;;;;;;;2.53;1.70;;;21.70;48.60;;;;;;5061427;28;20065;-80
2021/06/16 07:25:20;;;;;;;3.15;1.65;;;21.70;48.60;;;;;;5077609;28;20111;-80
2021/06/16 07:27:46;;;;;;;2.38;1.65;;;21.70;48.60;;;;;;5077150;28;20078;-80
2021/06/16 07:30:13;;;;;;;3.47;1.88;;;21.70;48.60;;;;;;5077634;28;20024;-79
2021/06/16 07:32:39;;;;;;;3.33;1.88;;;21.80;48.60;;;;;;5077165;28;20043;-79
2021/06/16 07:35:06;;;;;;;1.92;1.33;;;21.80;48.60;;;;;;5060331;28;20024;-82
2021/06/16 07:37:32;;;;;;;2.67;1.50;;;21.90;48.60;;;;;;5060691;28;20024;-80
2021/06/16 07:39:58;;;;;;;1.75;1.40;;;21.90;48.50;;;;;;5058592;28;20031;-80
2021/06/16 07:42:24;;;;;;;2.72;1.58;;;22.00;48.40;;;;;;5076762;28;20105;-80
2021/06/16 07:44:51;;;;;;;2.00;1.50;;;22.00;48.40;;;;;;5093562;28;20028;-80
2021/06/16 07:47:17;;;;;;;3.15;1.60;;;22.10;48.40;;;;;;5092379;28;20032;-80
2021/06/16 07:49:43;;;;;;;2.35;1.50;;;22.10;48.30;;;;;;5094649;28;20032;-79
2021/06/16 07:52:08;;;;;;;2.60;1.60;;;22.20;48.20;;;;;;5076378;28;20048;-79
2021/06/16 07:54:35;;;;;;;3.47;1.63;;;22.30;48.30;;;;;;5056305;28;20050;-79
2021/06/16 07:57:00;;;;;;;2.25;1.58;;;22.30;48.20;;;;;;5040036;28;20039;-80
2021/06/16 07:59:26;;;;;;;1.77;1.40;;;22.40;48.10;;;;;;5046100;28;20116;-80
2021/06/16 08:01:52;;;;;;;1.35;1.25;;;22.50;48.10;;;;;;5076832;28;20028;-81
2021/06/16 08:04:22;;;;;;;1.90;1.40;;;22.50;48.00;;;;;;5056104;28;20032;-81
2021/06/16 08:06:48;;;;;;;3.00;1.50;;;22.60;48.10;;;;;;5057029;28;20032;-78
2021/06/16 08:09:14;;;;;;;1.60;1.30;;;22.70;48.00;;;;;;5035333;28;20381;-79
2021/06/16 08:11:39;;;;;;;2.33;1.48;;;22.80;48.00;;;;;;5057952;28;20032;-79
2021/06/16 08:14:05;;;;;;;1.67;1.33;;;22.80;47.90;;;;;;5083496;28;20024;-79
2021/06/16 08:16:31;;;;;;;1.70;1.30;;;22.90;47.90;;;;;;5072447;28;20032;-80
2021/06/16 08:18:57;;;;;;;3.33;1.63;;;23.00;47.90;;;;;;5039225;28;20028;-82
2021/06/16 08:21:23;;;;;;;2.22;1.40;;;23.10;47.90;;;;;;5054201;28;20507;-79
2021/06/16 08:23:48;;;;;;;1.65;1.50;;;23.10;47.80;;;;;;5075309;28;20031;-80
2021/06/16 08:26:16;;;;;;;2.05;1.33;;;23.20;47.80;;;;;;5075825;28;20420;-79
2021/06/16 08:28:42;;;;;;;2.30;1.40;;;23.30;47.80;;;;;;5093768;28;20039;-78
2021/06/16 08:31:08;;;;;;;2.20;1.40;;;23.40;47.70;;;;;;5063721;28;20111;-78
2021/06/16 08:33:36;;;;;;;2.22;1.35;;;23.50;47.70;;;;;;5090744;28;20024;-78
2021/06/16 08:36:01;;;;;;;2.33;1.40;;;23.60;47.70;;;;;;5075736;28;20056;-79
2021/06/16 08:38:27;;;;;;;2.28;1.35;;;23.70;47.70;;;;;;5093285;28;20448;-79
2021/06/16 08:40:54;;;;;;;2.13;1.27;;;23.70;47.60;;;;;;5055785;28;20040;-79
2021/06/16 08:43:20;;;;;;;2.10;1.50;;;23.80;47.60;;;;;;5086894;28;20032;-79
2021/06/16 08:45:48;;;;;;;1.85;1.25;;;23.90;47.60;;;;;;5093496;28;20020;-78
2021/06/16 08:48:14;;;;;;;1.90;1.30;;;24.00;47.60;;;;;;5074959;28;20032;-79
2021/06/16 08:50:40;;;;;;;1.77;1.27;;;24.10;47.60;;;;;;5075040;28;20047;-78
2021/06/16 08:53:05;;;;;;;1.65;1.30;;;24.20;47.50;;;;;;5051777;28;20020;-80
2021/06/16 08:55:31;;;;;;;2.20;1.30;;;24.20;47.40;;;;;;5054547;28;20024;-79
2021/06/16 08:57:57;;;;;;;2.40;1.50;;;24.30;47.40;;;;;;5040146;28;20491;-79
2021/06/16 09:00:23;;;;;;;2.40;1.48;;;24.50;47.40;;;;;;5093512;28;20444;-81
2021/06/16 09:02:50;;;;;;;2.13;1.48;;;24.60;47.40;;;;;;5057906;28;20036;-79
2021/06/16 09:05:16;;;;;;;2.38;1.60;;;24.60;47.60;;;;;;5081912;28;20036;-80
2021/06/16 09:07:44;;;;;;;2.08;1.73;;;24.70;47.80;;;;;;5065788;28;20020;-80
2021/06/16 09:10:18;;;;;;;3.92;1.88;;;24.80;48.10;;;;;;5071612;28;20472;-80
2021/06/16 09:12:56;;;;;;;2.53;1.70;;;24.90;48.30;;;;;;5055575;28;20036;-82
2021/06/16 09:15:24;;;;;;;2.55;1.73;;;25.10;48.30;;;;;;5058491;28;20024;-84
2021/06/16 09:18:12;;;;;;;3.15;1.85;;;25.20;48.40;;;;;;5076064;28;20024;-84
2021/06/16 09:20:45;;;;;;;3.15;1.90;;;25.30;48.40;;;;;;5047614;28;20028;-82
2021/06/16 09:23:19;;;;;;;3.05;2.03;;;25.50;48.40;;;;;;5062039;28;20138;-84
2021/06/16 09:26:10;;;;;;;2.22;1.77;;;25.60;48.20;;;;;;5059753;28;20437;-83
2021/06/16 09:28:37;;;;;;;3.20;1.67;;;25.70;48.10;;;;;;5058786;28;20017;-85
2021/06/16 09:31:03;;;;;;;2.45;1.70;;;25.80;47.80;;;;;;5056295;28;20111;-89
2021/06/16 09:33:29;;;;;;;2.63;1.80;;;25.90;47.80;;;;;;5038550;28;20086;-84
2021/06/16 09:35:55;;;;;;;2.92;1.92;;;26.00;47.80;;;;;;5075519;28;20016;-85
2021/06/16 09:38:23;;;;;;;3.10;2.05;;;26.10;47.70;;;;;;5093548;28;20028;-84
2021/06/16 09:40:49;;;;;;;3.20;1.95;;;26.20;47.70;;;;;;5094002;28;20472;-86
2021/06/16 09:43:18;;;;;;;3.95;2.08;;;26.30;47.50;;;;;;5074326;28;20050;-90
2021/06/16 09:45:46;;;;;;;3.35;2.05;;;26.40;47.30;;;;;;5059141;28;20012;-87
2021/06/16 09:48:32;;;;;;;3.45;1.77;;;26.50;47.10;;;;;;5075813;28;20055;-87
2021/06/16 09:51:21;;;;;;;2.05;1.77;;;26.60;47.20;;;;;;5058747;28;20048;-89
2021/06/16 09:54:39;;;;;;;3.08;1.90;;;26.80;47.20;;;;;;5053849;28;20047;-88
2021/06/16 09:57:02;;;;;;;1.90;1.52;;;26.90;47.00;;;;;;5068156;28;20397;-89
2021/06/16 09:59:34;;;;;;;2.53;1.70;;;27.00;46.80;;;;;;5069900;28;20067;-89
2021/06/16 10:02:00;;;;;;;2.75;1.80;;;27.00;46.80;;;;;;5052728;28;20028;-88
2021/06/16 10:04:47;;;;;;;2.95;1.70;;;27.10;46.70;;;;;;5058759;28;20020;-90
2021/06/16 10:07:22;;;;;;;3.22;1.90;;;27.20;46.50;;;;;;5093573;28;20024;-87
2021/06/16 10:10:04;;;;;;;3.05;1.88;;;27.30;46.20;;;;;;5045778;28;20032;-84
2021/06/16 10:12:42;;;;;;;2.97;1.70;;;27.40;46.20;;;;;;5046635;28;20044;-83
2021/06/16 10:15:10;;;;;;;3.10;1.95;;;27.50;46.20;;;;;;5075056;28;20074;-82
2021/06/16 10:17:36;;;;;;;3.13;1.95;;;27.60;46.10;;;;;;5074835;28;20044;-83
2021/06/16 10:20:05;;;;;;;2.97;1.73;;;27.60;45.90;;;;;;5075117;28;20068;-82
2021/06/16 10:22:31;;;;;;;3.97;1.90;;;27.80;45.90;;;;;;5072822;28;20021;-84
2021/06/16 10:24:57;;;;;;;2.70;1.77;;;27.80;45.70;;;;;;5068892;28;20032;-84
2021/06/16 10:27:42;;;;;;;3.05;1.77;;;27.90;45.70;;;;;;5042723;28;20064;-85
2021/06/16 10:30:12;;;;;;;1.98;1.60;;;28.00;45.70;;;;;;5072344;28;20059;-85
2021/06/16 10:32:43;;;;;;;2.67;1.60;;;28.10;45.60;;;;;;5049179;28;20054;-84
2021/06/16 10:35:14;;;;;;;2.70;1.60;;;28.20;45.60;;;;;;5069013;28;20031;-86
2021/06/16 10:37:44;;;;;;;2.47;1.88;;;28.20;45.50;;;;;;5049284;28;20036;-88
2021/06/16 10:40:17;;;;;;;2.85;1.92;;;28.30;45.40;;;;;;5078635;28;20017;-85
2021/06/16 10:43:05;;;;;;;2.47;1.77;;;28.40;45.50;;;;;;5062827;28;20077;-82
2021/06/16 10:45:34;;;;;;;2.58;1.60;;;28.50;45.30;;;;;;5074115;28;20048;-82
2021/06/16 10:48:05;;;;;;;2.92;1.88;;;28.60;45.30;;;;;;5064588;28;20035;-82
2021/06/16 10:50:52;;;;;;;4.22;1.65;;;28.70;45.30;;;;;;5053497;28;20993;-80
2021/06/16 10:53:26;;;;;;;2.65;1.90;;;28.80;45.30;;;;;;5070244;28;20047;-82
2021/06/16 10:55:54;;;;;;;2.65;1.58;;;28.90;45.20;;;;;;5077782;28;20063;-81
2021/06/16 10:58:21;;;;;;;2.63;1.75;;;28.90;45.10;;;;;;5096233;28;20026;-82
2021/06/16 11:01:13;;;;;;;2.78;1.60;;;29.00;45.10;;;;;;5061715;28;20038;-79
2021/06/16 11:03:54;;;;;;;3.03;1.80;;;29.10;45.20;;;;;;5046715;28;20479;-82
2021/06/16 11:06:32;;;;;;;2.60;1.80;;;29.20;44.90;;;;;;5057882;28;20032;-82
2021/06/16 11:09:08;;;;;;;3.25;1.88;;;29.30;44.90;;;;;;5077133;28;20035;-80
2021/06/16 11:11:49;;;;;;;2.55;1.65;;;29.40;44.90;;;;;;5063240;28;20056;-81
2021/06/16 11:14:34;;;;;;;2.17;1.83;;;29.40;44.80;;;;;;5048940;28;20043;-84
2021/06/16 11:17:00;;;;;;;2.60;1.83;;;29.50;44.80;;;;;;5046915;28;20054;-82
2021/06/16 11:19:39;;;;;;;2.75;1.80;;;29.50;44.50;;;;;;5057548;28;20040;-82
2021/06/16 11:22:11;;;;;;;3.83;2.22;;;29.60;44.40;;;;;;5047416;28;20077;-83
2021/06/16 11:25:02;;;;;;;4.05;2.25;;;29.70;44.60;;;;;;5057653;28;20028;-81
2021/06/16 11:27:49;;;;;;;2.63;1.70;;;29.70;44.70;;;;;;5084259;28;20377;-82
2021/06/16 11:30:42;;;;;;;2.30;1.75;;;29.80;44.80;;;;;;5075149;28;20032;-83
2021/06/16 11:33:20;;;;;;;4.70;1.80;;;29.80;44.60;;;;;;5063902;28;20029;-82
2021/06/16 11:35:49;;;;;;;2.42;1.77;;;29.80;44.60;;;;;;5057094;28;20016;-81
2021/06/16 11:38:20;;;;;;;2.97;1.77;;;29.90;44.50;;;;;;5088688;28;20046;-80
2021/06/16 11:40:55;;;;;;;3.65;2.10;;;29.90;44.50;;;;;;5060902;28;20035;-83
2021/06/16 11:43:39;;;;;;;2.97;1.92;;;29.90;44.70;;;;;;5060389;28;20492;-80
2021/06/16 11:46:29;;;;;;;3.38;1.95;;;29.90;44.70;;;;;;5048056;28;20063;-82
2021/06/16 11:49:03;;;;;;;2.05;1.75;;;29.90;44.50;;;;;;5065274;28;20031;-82
2021/06/16 11:51:41;;;;;;;3.45;1.92;;;30.00;44.60;;;;;;5076746;28;20052;-80
2021/06/16 11:54:20;;;;;;;2.50;2.00;;;30.00;44.60;;;;;;5076591;28;20036;-80
2021/06/16 11:57:07;;;;;;;2.85;1.95;;;30.00;44.60;;;;;;5060314;28;20024;-80
2021/06/16 11:59:52;;;;;;;3.83;2.10;;;30.00;44.90;;;;;;5052454;28;20394;-81
2021/06/16 12:02:20;;;;;;;2.67;2.00;;;30.10;45.00;;;;;;5053917;28;20029;-82
2021/06/16 12:05:05;;;;;;;4.25;2.05;;;30.00;44.90;;;;;;5068902;28;20067;-80
2021/06/16 12:07:50;;;;;;;2.08;1.80;;;30.00;45.00;;;;;;5071785;28;20035;-82
2021/06/16 12:10:27;;;;;;;2.33;2.13;;;30.00;45.00;;;;;;5076075;28;20035;-81
2021/06/16 12:12:59;;;;;;;2.33;1.92;;;30.00;44.90;;;;;;5052210;28;20040;-81
2021/06/16 12:15:29;;;;;;;2.95;2.00;;;30.10;44.90;;;;;;5072288;28;20479;-81
2021/06/16 12:18:02;;;;;;;3.08;2.35;;;30.10;44.80;;;;;;5054502;28;20029;-83
2021/06/16 12:20:54;;;;;;;3.17;2.20;;;30.10;44.90;;;;;;5069183;28;20036;-80
2021/06/16 12:23:23;;;;;;;3.08;2.10;;;30.10;44.90;;;;;;5039711;28;20412;-80
2021/06/16 12:25:51;;;;;;;3.80;2.13;;;30.10;44.80;;;;;;5039543;28;20040;-79
2021/06/16 12:28:17;;;;;;;3.75;2.30;;;30.10;44.70;;;;;;5055321;28;20384;-80
2021/06/16 12:30:44;;;;;;;3.17;2.33;;;30.10;44.60;;;;;;5075796;28;20024;-80
2021/06/16 12:33:20;;;;;;;2.67;1.95;;;30.20;44.60;;;;;;5075946;28;20040;-80
2021/06/16 12:36:07;;;;;;;4.35;2.40;;;30.10;44.50;;;;;;5063313;28;20072;-80
2021/06/16 12:38:39;;;;;;;3.40;2.22;;;30.10;44.60;;;;;;5075709;28;20525;-79
2021/06/16 12:41:30;;;;;;;3.30;1.90;;;30.10;44.60;;;;;;5075881;28;20028;-78
2021/06/16 12:44:11;;;;;;;3.10;2.20;;;30.10;44.70;;;;;;5094110;28;20024;-80
2021/06/16 12:47:03;;;;;;;2.72;2.00;;;30.10;44.60;;;;;;5075792;28;20082;-79
2021/06/16 12:49:37;;;;;;;4.22;2.35;;;30.20;44.80;;;;;;5063805;28;20035;-82
2021/06/16 12:52:06;;;;;;;3.03;2.03;;;30.20;44.70;;;;;;5070544;28;20127;-81
2021/06/16 12:54:40;;;;;;;2.63;2.10;;;30.20;44.70;;;;;;5067658;28;20040;-79
2021/06/16 12:57:08;;;;;;;;;;;30.20;44.80;;;;;;5070861;28;20415;-79
2021/06/16 12:59:43;;;;;;;2.67;1.85;;;30.20;44.80;;;;;;5093546;28;19908;-80
2021/06/16 13:02:10;;;;;;;3.05;2.30;;;30.20;44.70;;;;;;5061564;28;20465;-80